createdAt,value
2023-01-17T00:01:48.125Z,3.83
2023-01-17T00:06:29.323Z,2.60
2023-01-17T00:10:53.318Z,2.03
2023-01-17T00:15:20.010Z,2.85
2023-01-17T00:20:01.286Z,3.42
2023-01-17T00:24:42.417Z,2.07
2023-01-17T00:29:05.113Z,2.30
2023-01-17T00:33:29.381Z,2.05
2023-01-17T00:38:02.397Z,1.98
2023-01-17T00:42:25.140Z,2.07
2023-01-17T00:47:06.286Z,2.38
2023-01-17T00:51:50.463Z,0.93
2023-01-17T00:56:31.958Z,2.37
2023-01-17T01:01:13.647Z,2.17
2023-01-17T01:05:55.760Z,0.95
2023-01-17T01:10:38.549Z,1.53
2023-01-17T01:15:20.198Z,1.63
2023-01-17T01:20:01.658Z,2.17
2023-01-17T01:24:45.419Z,1.45
2023-01-17T01:29:28.853Z,0.90
2023-01-17T01:33:53.725Z,1.25
2023-01-17T01:38:17.866Z,1.40
2023-01-17T01:42:50.394Z,1.47
2023-01-17T01:47:10.431Z,1.35
2023-01-17T01:51:40.306Z,1.65
2023-01-17T01:55:59.094Z,1.00
2023-01-17T02:00:27.011Z,1.75
2023-01-17T02:04:52.860Z,1.92
2023-01-17T02:09:18.215Z,1.42
2023-01-17T02:13:42.988Z,1.63
2023-01-17T02:18:17.791Z,2.40
2023-01-17T02:23:17.302Z,1.60
2023-01-17T02:27:55.459Z,2.33
2023-01-17T02:32:32.992Z,1.30
2023-01-17T02:36:57.778Z,1.60
2023-01-17T02:41:27.559Z,1.23
2023-01-17T02:45:51.523Z,1.10
2023-01-17T02:50:19.567Z,1.85
2023-01-17T02:55:05.968Z,1.90
2023-01-17T02:59:45.163Z,1.17
2023-01-17T03:04:16.274Z,1.45
2023-01-17T03:08:44.486Z,1.35
2023-01-17T03:13:08.364Z,1.40
2023-01-17T03:17:34.321Z,1.05
2023-01-17T03:21:58.266Z,1.52
2023-01-17T03:26:26.963Z,1.00
2023-01-17T03:30:51.298Z,1.17
2023-01-17T03:35:15.351Z,2.55
2023-01-17T03:39:39.593Z,1.85
2023-01-17T03:44:05.799Z,1.43
2023-01-17T03:48:29.721Z,2.30
2023-01-17T03:52:53.733Z,1.17
2023-01-17T03:57:17.675Z,1.37
2023-01-17T04:01:43.216Z,1.65
2023-01-17T04:06:07.596Z,1.33
2023-01-17T04:10:31.550Z,1.17
2023-01-17T04:14:55.952Z,1.55
2023-01-17T04:19:21.671Z,1.63
2023-01-17T04:23:45.635Z,2.05
2023-01-17T04:28:09.521Z,2.20
2023-01-17T04:32:35.881Z,1.60
2023-01-17T04:37:01.738Z,2.40
2023-01-17T04:41:25.724Z,1.33
2023-01-17T04:45:49.571Z,2.53
2023-01-17T04:50:13.732Z,2.63
2023-01-17T04:54:38.927Z,2.13
2023-01-17T04:59:03.068Z,2.05
2023-01-17T05:03:27.064Z,2.55
2023-01-17T05:07:58.232Z,4.05
2023-01-17T05:12:23.460Z,2.70
2023-01-17T05:16:47.232Z,3.03
2023-01-17T05:21:11.513Z,3.90
2023-01-17T05:25:37.098Z,3.10
2023-01-17T05:30:02.884Z,2.70
2023-01-17T05:34:26.883Z,2.95
2023-01-17T05:38:47.186Z,1.40
2023-01-17T05:43:11.388Z,3.38
2023-01-17T05:47:36.848Z,2.55
2023-01-17T05:52:01.307Z,2.55
2023-01-17T05:56:26.112Z,3.67
2023-01-17T06:00:50.627Z,2.88
2023-01-17T06:05:16.685Z,2.78
2023-01-17T06:09:40.565Z,2.47
2023-01-17T06:14:04.595Z,3.20
2023-01-17T06:18:44.941Z,4.07
2023-01-17T06:23:15.126Z,2.87
2023-01-17T06:27:38.929Z,3.10
2023-01-17T06:32:02.995Z,3.58
2023-01-17T06:36:26.817Z,5.18
2023-01-17T06:40:52.011Z,4.23
2023-01-17T06:45:19.090Z,3.60
2023-01-17T06:49:43.077Z,3.90
2023-01-17T06:54:07.083Z,3.50
2023-01-17T06:58:32.695Z,3.47
2023-01-17T07:02:56.781Z,4.00
2023-01-17T07:07:20.785Z,2.23
2023-01-17T07:11:45.488Z,3.22
2023-01-17T07:16:10.960Z,3.65
2023-01-17T07:20:35.026Z,4.15
2023-01-17T07:24:59.718Z,3.67
2023-01-17T07:29:23.917Z,2.95
2023-01-17T07:33:49.141Z,3.67
2023-01-17T07:38:16.287Z,1.90
2023-01-17T07:42:40.615Z,3.28
2023-01-17T07:47:04.711Z,2.90
2023-01-17T07:51:30.242Z,3.20
2023-01-17T07:55:54.602Z,4.65
2023-01-17T08:00:19.867Z,2.97
2023-01-17T08:04:43.617Z,3.05
2023-01-17T08:09:09.096Z,2.93
2023-01-17T08:13:33.074Z,2.17
2023-01-17T08:17:57.692Z,3.28
2023-01-17T08:22:21.810Z,2.73
2023-01-17T08:26:47.883Z,3.60
2023-01-17T08:31:12.201Z,3.13
2023-01-17T08:35:36.751Z,1.57
2023-01-17T08:40:00.719Z,4.30
2023-01-17T08:53:15.611Z,5.10
2023-01-17T08:57:39.665Z,4.03
2023-01-17T09:02:14.851Z,3.58
2023-01-17T09:06:39.646Z,3.27
2023-01-17T09:11:05.700Z,5.45
2023-01-17T09:15:30.944Z,3.78
2023-01-17T09:19:56.636Z,4.83
2023-01-17T09:24:20.748Z,4.00
2023-01-17T09:28:44.879Z,4.53
2023-01-17T09:33:09.574Z,4.67
2023-01-17T09:37:34.852Z,6.10
2023-01-17T09:42:04.023Z,3.05
2023-01-17T09:46:31.866Z,3.58
2023-01-17T09:51:01.680Z,4.87
2023-01-17T09:55:27.310Z,2.97
2023-01-17T10:00:03.564Z,2.40
2023-01-17T10:04:46.090Z,2.50
2023-01-17T10:09:24.741Z,3.45
2023-01-17T10:13:59.961Z,3.47
2023-01-17T10:18:48.037Z,4.53
2023-01-17T10:23:29.085Z,3.33
2023-01-17T10:27:58.283Z,4.75
2023-01-17T10:32:30.741Z,5.70
2023-01-17T10:37:00.476Z,3.50
2023-01-17T10:41:29.658Z,3.15
2023-01-17T10:45:56.221Z,3.75
2023-01-17T10:50:24.087Z,2.40
2023-01-17T10:55:18.697Z,3.63
2023-01-17T10:59:44.163Z,4.13
2023-01-17T11:04:19.932Z,3.80
2023-01-17T11:08:54.210Z,5.50
2023-01-17T11:13:26.054Z,5.45
2023-01-17T11:17:53.293Z,5.72
2023-01-17T11:22:18.010Z,2.87
2023-01-17T11:26:49.554Z,3.00
2023-01-17T11:31:27.006Z,2.90
2023-01-17T11:35:49.597Z,2.40
2023-01-17T11:40:27.427Z,5.00
2023-01-17T11:44:53.506Z,3.55
2023-01-17T11:49:25.057Z,4.80
2023-01-17T11:53:49.341Z,2.95
2023-01-17T11:58:15.515Z,4.35
2023-01-17T12:03:15.120Z,6.05
2023-01-17T12:07:49.461Z,4.77
2023-01-17T12:12:39.933Z,4.05
2023-01-17T12:17:14.177Z,4.68
2023-01-17T12:21:49.251Z,3.93
2023-01-17T12:26:23.992Z,4.30
2023-01-17T12:31:02.025Z,5.63
2023-01-17T12:35:33.181Z,4.10
2023-01-17T12:40:03.186Z,3.47
2023-01-17T12:44:41.286Z,4.05
2023-01-17T12:49:19.404Z,4.25
2023-01-17T12:53:51.110Z,4.20
2023-01-17T12:58:21.875Z,3.03
2023-01-17T13:02:52.178Z,3.50
2023-01-17T13:07:27.728Z,4.10
2023-01-17T13:11:56.598Z,2.35
2023-01-17T13:16:27.645Z,3.30
2023-01-17T13:21:08.839Z,4.53
2023-01-17T13:25:42.627Z,3.42
2023-01-17T13:30:32.684Z,4.10
2023-01-17T13:35:23.224Z,3.83
2023-01-17T13:39:58.219Z,5.70
2023-01-17T13:44:25.398Z,4.55
2023-01-17T13:49:09.328Z,4.55
2023-01-17T13:53:56.343Z,3.80
2023-01-17T13:58:30.130Z,6.38
2023-01-17T14:02:55.704Z,4.47
2023-01-17T14:07:26.593Z,4.27
2023-01-17T14:12:01.971Z,3.47
2023-01-17T14:16:28.949Z,2.90
2023-01-17T14:21:07.177Z,4.60
2023-01-17T14:25:38.348Z,3.67
2023-01-17T14:30:04.877Z,4.07
2023-01-17T14:34:29.177Z,3.05
2023-01-17T14:38:53.311Z,3.57
2023-01-17T14:43:21.426Z,2.42
2023-01-17T14:47:46.925Z,4.47
2023-01-17T14:52:16.650Z,6.73
2023-01-17T14:56:40.557Z,5.95
2023-01-17T15:01:08.574Z,6.15
2023-01-17T15:05:34.856Z,4.07
2023-01-17T15:09:59.089Z,4.57
2023-01-17T15:14:27.011Z,4.45
2023-01-17T15:18:51.444Z,3.70
2023-01-17T15:23:22.659Z,5.73
2023-01-17T15:27:46.531Z,3.67
2023-01-17T15:32:19.381Z,4.00
2023-01-17T15:36:43.549Z,4.17
2023-01-17T15:41:13.590Z,4.88
2023-01-17T15:45:37.473Z,4.15
2023-01-17T15:50:02.607Z,4.18
2023-01-17T15:54:33.361Z,3.27
2023-01-17T15:59:22.389Z,3.55
2023-01-17T16:03:55.180Z,6.78
2023-01-17T16:08:30.259Z,7.83
2023-01-17T16:12:56.162Z,5.15
2023-01-17T16:17:22.246Z,4.22
2023-01-17T16:21:48.612Z,4.20
2023-01-17T16:26:12.461Z,4.72
2023-01-17T16:30:36.437Z,5.22
2023-01-17T16:35:01.845Z,4.95
2023-01-17T16:39:25.649Z,4.90
2023-01-17T16:43:59.145Z,6.40
2023-01-17T16:48:23.384Z,4.88
2023-01-17T16:52:48.795Z,6.37
2023-01-17T16:57:12.683Z,7.15
2023-01-17T17:01:36.695Z,7.55
2023-01-17T17:06:01.901Z,5.80
2023-01-17T17:10:27.793Z,7.57
2023-01-17T17:14:51.891Z,7.88
2023-01-17T17:19:15.899Z,17.75
2023-01-17T17:23:42.498Z,7.20
2023-01-17T17:28:07.907Z,8.25
2023-01-17T17:32:32.462Z,8.45
2023-01-17T17:36:56.426Z,6.70
2023-01-17T17:41:21.547Z,7.93
2023-01-17T17:45:46.834Z,6.82
2023-01-17T17:50:13.212Z,8.60
2023-01-17T17:54:37.104Z,7.75
2023-01-17T17:59:02.719Z,8.40
2023-01-17T18:03:30.809Z,7.38
2023-01-17T18:07:55.171Z,7.90
2023-01-17T18:12:19.315Z,6.70
2023-01-17T18:16:44.940Z,7.45
2023-01-17T18:21:12.373Z,7.77
2023-01-17T18:25:36.625Z,8.90
2023-01-17T18:30:00.426Z,7.53
2023-01-17T18:34:27.037Z,9.73
2023-01-17T18:38:53.827Z,8.10
2023-01-17T18:43:17.770Z,12.32
2023-01-17T18:47:41.571Z,16.10
2023-01-17T18:52:07.943Z,12.27
2023-01-17T18:56:35.205Z,10.93
2023-01-17T19:01:07.869Z,13.02
2023-01-17T19:05:31.873Z,13.17
2023-01-17T19:09:55.821Z,11.52
2023-01-17T19:14:21.249Z,13.38
2023-01-17T19:18:46.006Z,12.33
2023-01-17T19:23:09.897Z,11.85
2023-01-17T19:27:34.098Z,10.55
2023-01-17T19:31:59.397Z,12.27
2023-01-17T19:36:25.269Z,11.90
2023-01-17T19:40:49.439Z,10.20
2023-01-17T19:45:15.476Z,16.98
2023-01-17T19:49:42.444Z,12.50
2023-01-17T19:54:08.079Z,15.05
2023-01-17T19:58:32.395Z,13.23
2023-01-17T20:02:56.493Z,12.33
2023-01-17T20:07:21.884Z,10.98
2023-01-17T20:11:46.726Z,15.73
2023-01-17T20:16:15.459Z,17.25
2023-01-17T20:20:56.336Z,16.53
2023-01-17T20:25:22.416Z,17.92
2023-01-17T20:29:46.733Z,15.57
2023-01-17T20:34:12.253Z,15.97
2023-01-17T20:38:43.939Z,19.67
2023-01-17T20:43:03.549Z,19.63
2023-01-17T20:47:29.906Z,21.97
2023-01-17T20:51:49.017Z,23.33
2023-01-17T20:56:09.027Z,19.30
2023-01-17T21:00:37.817Z,8.35
2023-01-17T21:05:02.886Z,16.33
2023-01-17T21:09:26.984Z,16.65
2023-01-17T21:13:51.371Z,11.68
2023-01-17T21:18:17.803Z,15.90
2023-01-17T21:22:41.690Z,16.45
2023-01-17T21:27:05.814Z,15.10
2023-01-17T21:31:34.738Z,14.83
2023-01-17T21:36:08.579Z,13.45
2023-01-17T21:40:33.445Z,15.85
2023-01-17T21:44:57.263Z,15.07
2023-01-17T21:49:21.254Z,12.53
2023-01-17T21:53:46.710Z,15.35
2023-01-17T21:58:31.833Z,13.60
2023-01-17T22:02:58.074Z,12.97
2023-01-17T22:07:22.699Z,15.00
2023-01-17T22:11:47.976Z,15.85
2023-01-17T22:16:14.229Z,15.60
2023-01-17T22:20:41.329Z,18.17
2023-01-17T22:25:05.950Z,19.65
2023-01-17T22:29:33.501Z,19.55
2023-01-17T22:33:59.463Z,19.70
2023-01-17T22:38:23.391Z,18.67
2023-01-17T22:42:47.411Z,19.08
2023-01-17T22:47:13.417Z,20.93
2023-01-17T22:51:38.067Z,20.60
2023-01-17T22:56:03.122Z,19.70
2023-01-17T23:00:27.028Z,19.73
2023-01-17T23:04:52.474Z,18.17
2023-01-17T23:09:12.691Z,25.77
2023-01-17T23:13:31.965Z,16.40
2023-01-17T23:18:07.354Z,17.70
2023-01-17T23:22:30.044Z,18.20
2023-01-17T23:27:08.275Z,14.73
2023-01-17T23:31:27.057Z,17.50
2023-01-17T23:35:46.619Z,15.93
2023-01-17T23:40:08.944Z,15.38
2023-01-17T23:44:31.668Z,17.13
2023-01-17T23:48:51.597Z,17.77
2023-01-17T23:53:10.511Z,15.90
2023-01-17T23:57:32.050Z,14.82
